Time;durP1;ratioP1;P1;durP2;ratioP2;P2;SDS_P1;SDS_P2;PMS_P1;PMS_P2;Temp;Humidity;BMP_temperature;BMP_pressure;BME280_temperature;BME280_humidity;BME280_pressure;Samples;Min_cycle;Max_cycle;Signal;HPM_P1;HPM_P2
2022/05/09 00:01:57;;;;;;;8.55;2.88;;;16.00;81.80;;;;;;5088260;28;20020;-78
2022/05/09 00:04:23;;;;;;;6.88;2.47;;;16.00;81.90;;;;;;5094788;28;20107;-78
2022/05/09 00:06:49;;;;;;;6.05;2.58;;;16.00;82.10;;;;;;5094417;28;20081;-78
2022/05/09 00:09:15;;;;;;;6.45;2.33;;;16.00;82.20;;;;;;5095894;28;20371;-78
2022/05/09 00:11:42;;;;;;;6.75;2.75;;;15.90;82.10;;;;;;5095729;28;20055;-78
2022/05/09 00:14:08;;;;;;;6.88;2.35;;;16.00;82.20;;;;;;5094753;28;20027;-78
2022/05/09 00:16:34;;;;;;;6.68;2.72;;;15.90;82.10;;;;;;5094566;28;20028;-78
2022/05/09 00:19:03;;;;;;;6.35;2.30;;;15.90;82.20;;;;;;5096082;28;20032;-78
2022/05/09 00:21:34;;;;;;;5.60;2.42;;;15.90;82.10;;;;;;5096190;28;20047;-78
2022/05/09 00:24:00;;;;;;;5.30;2.17;;;15.90;81.90;;;;;;5094747;28;20024;-78
2022/05/09 00:26:31;;;;;;;6.50;2.55;;;15.90;81.70;;;;;;5095999;28;20097;-77
2022/05/09 00:28:58;;;;;;;6.25;2.45;;;15.90;81.50;;;;;;5094602;28;20032;-79
2022/05/09 00:31:24;;;;;;;5.80;2.20;;;15.90;81.40;;;;;;5095489;28;20114;-78
2022/05/09 00:33:50;;;;;;;7.35;2.58;;;15.90;81.40;;;;;;5095505;28;20067;-77
2022/05/09 00:36:17;;;;;;;6.20;2.45;;;15.90;81.50;;;;;;5096938;28;20024;-78
2022/05/09 00:38:43;;;;;;;5.18;2.20;;;15.90;81.60;;;;;;5095798;28;20031;-78
2022/05/09 00:43:54;;;;;;;6.35;2.20;;;15.90;81.50;;;;;;5095848;28;20058;-78
2022/05/09 00:46:20;;;;;;;5.63;2.40;;;15.90;82.20;;;;;;5094384;28;20020;-78
2022/05/09 00:48:45;;;;;;;4.85;1.90;;;15.90;82.00;;;;;;5096153;28;20017;-78
2022/05/09 00:51:18;;;;;;;5.78;2.28;;;15.90;82.00;;;;;;5094321;28;20020;-78
2022/05/09 00:53:44;;;;;;;5.60;2.13;;;16.00;82.00;;;;;;5094843;28;20031;-78
2022/05/09 00:56:16;;;;;;;4.30;1.88;;;16.00;81.90;;;;;;5096054;28;20043;-78
2022/05/09 00:58:46;;;;;;;5.43;2.40;;;16.00;81.80;;;;;;5094600;28;20107;-78
2022/05/09 01:01:13;;;;;;;5.95;2.75;;;16.00;81.60;;;;;;5094977;28;20487;-77
2022/05/09 01:03:48;;;;;;;4.75;2.17;;;16.00;81.60;;;;;;5096283;28;20028;-78
2022/05/09 01:06:15;;;;;;;4.57;2.10;;;16.00;81.60;;;;;;5094258;28;20024;-77
2022/05/09 01:08:41;;;;;;;6.03;2.20;;;16.00;81.70;;;;;;5095831;28;20031;-77
2022/05/09 01:11:10;;;;;;;5.13;2.33;;;16.00;81.90;;;;;;5094657;28;20418;-76
2022/05/09 01:13:41;;;;;;;6.47;2.63;;;16.00;82.00;;;;;;5094425;28;20479;-78
2022/05/09 01:16:08;;;;;;;6.32;2.30;;;15.90;82.00;;;;;;5094223;28;20035;-77
2022/05/09 01:18:34;;;;;;;6.30;2.28;;;15.90;82.20;;;;;;5094418;28;20094;-78
2022/05/09 01:21:00;;;;;;;5.65;2.33;;;15.90;82.20;;;;;;5094006;28;20023;-77
2022/05/09 01:23:31;;;;;;;6.15;2.30;;;15.90;82.20;;;;;;5095047;28;20024;-79
2022/05/09 01:25:57;;;;;;;7.72;2.55;;;15.90;82.20;;;;;;5094392;28;20550;-79
2022/05/09 01:28:23;;;;;;;5.43;2.20;;;15.90;82.20;;;;;;5093328;28;20105;-78
2022/05/09 01:30:56;;;;;;;5.53;2.08;;;15.90;82.20;;;;;;5093386;28;20112;-78
2022/05/09 01:33:35;;;;;;;5.60;2.40;;;15.90;82.10;;;;;;5093691;28;20024;-78
2022/05/09 01:36:18;;;;;;;4.13;1.90;;;15.90;82.00;;;;;;5094475;28;20533;-78
2022/05/09 01:38:53;;;;;;;4.18;1.90;;;15.90;81.80;;;;;;5093361;28;20031;-77
2022/05/09 01:41:19;;;;;;;5.00;2.20;;;15.90;81.80;;;;;;5094597;28;20493;-78
2022/05/09 01:43:51;;;;;;;6.47;2.42;;;15.80;81.50;;;;;;5093043;28;20020;-78
2022/05/09 01:46:22;;;;;;;7.05;2.53;;;15.90;81.70;;;;;;5092846;28;20027;-78
2022/05/09 01:51:33;;;;;;;4.82;2.13;;;15.80;81.50;;;;;;5094586;28;20026;-78
2022/05/09 01:53:59;;;;;;;5.60;2.08;;;15.90;81.50;;;;;;5094556;28;20032;-77
2022/05/09 01:56:28;;;;;;;5.60;2.20;;;15.80;81.80;;;;;;5093261;28;20066;-78
2022/05/09 01:58:53;;;;;;;3.75;2.00;;;15.80;82.20;;;;;;5093356;28;20027;-78
2022/05/09 02:01:21;;;;;;;5.85;2.25;;;15.80;82.10;;;;;;5094726;28;20024;-78
2022/05/09 02:03:47;;;;;;;4.55;2.25;;;15.80;82.00;;;;;;5093373;28;20031;-77
2022/05/09 02:06:14;;;;;;;4.53;2.15;;;15.90;81.90;;;;;;5092704;28;20127;-77
2022/05/09 02:08:40;;;;;;;5.72;2.20;;;15.90;81.80;;;;;;5093226;28;20017;-77
2022/05/09 02:11:05;;;;;;;5.20;2.40;;;16.00;81.80;;;;;;5093501;28;20065;-78
2022/05/09 02:13:31;;;;;;;4.57;2.20;;;16.00;81.70;;;;;;5094145;28;20032;-78
2022/05/09 02:15:57;;;;;;;4.38;2.03;;;16.00;81.60;;;;;;5089816;28;20013;-77
2022/05/09 02:18:22;;;;;;;4.55;2.00;;;16.00;82.10;;;;;;5094006;28;20058;-78
2022/05/09 02:20:48;;;;;;;6.45;2.30;;;16.00;81.60;;;;;;5093236;28;20024;-78
2022/05/09 02:23:14;;;;;;;6.13;2.38;;;15.90;81.70;;;;;;5093109;28;20031;-78
2022/05/09 02:25:42;;;;;;;5.07;2.20;;;15.90;82.00;;;;;;5092676;28;20087;-79
2022/05/09 02:28:09;;;;;;;4.95;1.92;;;15.90;82.10;;;;;;5092939;28;20559;-78
2022/05/09 02:30:36;;;;;;;3.70;1.75;;;15.90;82.20;;;;;;5092924;28;20028;-78
2022/05/09 02:33:02;;;;;;;6.10;2.20;;;15.90;82.20;;;;;;5094062;28;20043;-78
2022/05/09 02:35:28;;;;;;;6.20;2.40;;;15.80;82.30;;;;;;5092746;28;20438;-78
2022/05/09 02:37:54;;;;;;;4.88;2.00;;;15.80;82.30;;;;;;5092583;28;20046;-79
2022/05/09 02:40:20;;;;;;;6.05;2.30;;;15.80;82.20;;;;;;5092680;28;20502;-78
2022/05/09 02:42:46;;;;;;;5.57;2.30;;;15.80;82.20;;;;;;5094450;28;20078;-77
2022/05/09 02:45:12;;;;;;;6.05;2.40;;;15.80;82.20;;;;;;5093591;28;20399;-78
2022/05/09 02:47:40;;;;;;;4.93;2.40;;;15.80;82.00;;;;;;5092564;28;20493;-78
2022/05/09 02:50:06;;;;;;;3.60;1.80;;;15.80;82.10;;;;;;5094147;28;20097;-77
2022/05/09 02:52:32;;;;;;;4.50;2.00;;;15.80;82.10;;;;;;5092961;28;20074;-78
2022/05/09 02:54:57;;;;;;;5.97;2.40;;;15.80;82.20;;;;;;5092646;28;20526;-77
2022/05/09 02:57:23;;;;;;;4.97;2.20;;;15.80;81.90;;;;;;5092422;28;20032;-78
2022/05/09 02:59:49;;;;;;;4.68;1.90;;;15.80;81.70;;;;;;5092674;28;20036;-77
2022/05/09 03:02:14;;;;;;;5.68;2.25;;;15.80;81.60;;;;;;5093966;28;20131;-77
2022/05/09 03:04:40;;;;;;;6.65;2.40;;;15.80;81.80;;;;;;5092810;28;20028;-78
2022/05/09 03:07:11;;;;;;;5.40;2.08;;;15.80;82.20;;;;;;5092504;28;20441;-76
2022/05/09 03:09:37;;;;;;;;;;;15.80;82.20;;;;;;5093002;28;20414;-77
2022/05/09 03:12:04;;;;;;;5.22;1.92;;;15.80;82.10;;;;;;5092342;28;20003;-78
2022/05/09 03:14:31;;;;;;;3.85;2.00;;;15.80;82.00;;;;;;5093949;28;20474;-77
2022/05/09 03:16:57;;;;;;;4.03;1.90;;;15.90;82.00;;;;;;5093494;28;20032;-78
2022/05/09 03:19:24;;;;;;;4.68;2.17;;;15.90;81.90;;;;;;5091838;28;20024;-78
2022/05/09 03:21:50;;;;;;;5.55;2.30;;;15.90;81.80;;;;;;5091725;28;20376;-78
2022/05/09 03:24:16;;;;;;;5.18;2.20;;;15.90;81.70;;;;;;5091874;28;20027;-78
2022/05/09 03:26:42;;;;;;;4.68;2.17;;;15.90;81.60;;;;;;5091265;28;20521;-78
2022/05/09 03:29:08;;;;;;;4.15;2.05;;;15.90;81.60;;;;;;5091363;28;20024;-78
2022/05/09 03:31:33;;;;;;;4.57;1.85;;;15.90;81.70;;;;;;5091621;28;20028;-78
2022/05/09 03:33:59;;;;;;;5.28;2.10;;;15.90;81.90;;;;;;5091784;28;20028;-78
2022/05/09 03:36:24;;;;;;;4.47;2.10;;;15.90;82.00;;;;;;5091660;28;20127;-79
2022/05/09 03:38:50;;;;;;;4.88;2.10;;;15.80;82.00;;;;;;5095016;28;20028;-78
2022/05/09 03:41:16;;;;;;;5.65;2.30;;;15.80;82.10;;;;;;5096025;28;20403;-78
2022/05/09 03:43:41;;;;;;;6.03;2.45;;;15.80;82.20;;;;;;5097159;28;20016;-78
2022/05/09 03:46:07;;;;;;;5.53;2.40;;;15.80;82.30;;;;;;5095078;28;20031;-78
2022/05/09 03:48:32;;;;;;;5.85;2.40;;;15.80;82.30;;;;;;5095626;28;20062;-78
2022/05/09 03:51:01;;;;;;;5.50;2.30;;;15.80;82.20;;;;;;5097241;28;20039;-78
2022/05/09 03:53:26;;;;;;;5.57;2.30;;;15.80;82.10;;;;;;5095720;28;20115;-78
2022/05/09 03:55:52;;;;;;;5.63;2.40;;;15.80;82.20;;;;;;5097128;28;20559;-78
2022/05/09 03:58:18;;;;;;;5.40;2.30;;;15.80;82.10;;;;;;5095777;28;20055;-77
2022/05/09 04:00:44;;;;;;;4.50;2.30;;;15.70;82.30;;;;;;5095860;28;20158;-78
2022/05/09 04:03:09;;;;;;;4.60;2.10;;;15.80;82.60;;;;;;5096976;28;20032;-78
2022/05/09 04:05:35;;;;;;;5.53;2.20;;;15.80;81.80;;;;;;5094707;28;20021;-78
2022/05/09 04:08:08;;;;;;;4.78;2.10;;;15.70;81.60;;;;;;5095739;28;20024;-78
2022/05/09 04:10:36;;;;;;;5.28;2.38;;;15.70;81.90;;;;;;5093701;28;20035;-77
2022/05/09 04:13:02;;;;;;;4.93;2.45;;;15.70;81.60;;;;;;5079252;28;20504;-79
2022/05/09 04:18:16;;;;;;;5.53;2.40;;;15.80;81.80;;;;;;5081037;28;20035;-78
2022/05/09 04:20:43;;;;;;;5.65;2.03;;;15.80;82.30;;;;;;5092016;28;20411;-79
2022/05/09 04:23:09;;;;;;;4.93;2.28;;;15.80;82.10;;;;;;5091635;28;20501;-77
2022/05/09 04:25:35;;;;;;;4.10;2.00;;;15.80;81.90;;;;;;5091614;28;20024;-79
2022/05/09 04:28:04;;;;;;;6.07;2.50;;;15.80;81.90;;;;;;5092164;28;20024;-78
2022/05/09 04:30:31;;;;;;;6.40;2.30;;;15.80;81.90;;;;;;5090994;28;20684;-79
2022/05/09 04:32:57;;;;;;;5.05;2.42;;;15.90;81.70;;;;;;5091546;28;20110;-79
2022/05/09 04:35:22;;;;;;;4.65;2.17;;;15.90;81.60;;;;;;5092546;28;20070;-80
2022/05/09 04:37:52;;;;;;;4.28;1.88;;;15.90;81.50;;;;;;5094566;28;20561;-81
2022/05/09 04:40:20;;;;;;;5.90;2.10;;;15.90;81.60;;;;;;5085261;28;20032;-80
2022/05/09 04:42:46;;;;;;;4.38;2.10;;;15.90;81.70;;;;;;5095297;28;20016;-80
2022/05/09 04:45:13;;;;;;;4.80;2.25;;;15.90;81.80;;;;;;5095804;28;20035;-81
2022/05/09 04:47:40;;;;;;;4.95;2.10;;;15.80;81.90;;;;;;5100027;28;20097;-79
2022/05/09 04:50:08;;;;;;;5.25;2.75;;;15.80;81.90;;;;;;5097251;28;20032;-81
2022/05/09 04:52:34;;;;;;;6.53;2.72;;;15.80;82.00;;;;;;5094727;28;20040;-81
2022/05/09 04:54:59;;;;;;;4.47;2.22;;;15.80;82.00;;;;;;5094247;28;20028;-80
2022/05/09 04:57:25;;;;;;;4.80;2.45;;;15.80;82.10;;;;;;5095297;28;20054;-81
2022/05/09 04:59:50;;;;;;;5.18;2.33;;;15.80;82.10;;;;;;5099628;28;20039;-81
2022/05/09 05:02:16;;;;;;;5.93;2.38;;;15.80;82.10;;;;;;5093319;28;20028;-84
2022/05/09 05:04:42;;;;;;;5.40;2.50;;;15.80;81.80;;;;;;5091444;28;20046;-83
2022/05/09 05:07:08;;;;;;;4.13;2.22;;;15.80;82.00;;;;;;5093923;28;20077;-81
2022/05/09 05:09:35;;;;;;;5.40;2.30;;;15.70;82.10;;;;;;5095750;28;20039;-82
2022/05/09 05:12:01;;;;;;;4.78;2.28;;;15.80;82.20;;;;;;5095626;28;20024;-83
2022/05/09 05:14:26;;;;;;;4.10;2.20;;;15.70;81.70;;;;;;5095184;28;20028;-81
2022/05/09 05:17:01;;;;;;;4.80;1.88;;;15.80;81.70;;;;;;5084784;28;20057;-81
2022/05/09 05:19:44;;;;;;;3.83;1.83;;;15.70;81.60;;;;;;5093995;28;20020;-78
2022/05/09 05:22:14;;;;;;;5.85;2.42;;;15.70;81.40;;;;;;5088987;28;20035;-79
2022/05/09 05:24:43;;;;;;;5.45;2.20;;;15.70;81.40;;;;;;5085787;28;20028;-82
2022/05/09 05:27:09;;;;;;;4.13;2.03;;;15.80;81.40;;;;;;5100362;28;20383;-82
2022/05/09 05:29:35;;;;;;;4.97;2.22;;;15.80;81.50;;;;;;5092268;28;20036;-83
2022/05/09 05:32:01;;;;;;;5.47;2.35;;;15.80;81.90;;;;;;5091488;28;20028;-82
2022/05/09 05:34:26;;;;;;;4.15;2.25;;;15.80;81.80;;;;;;5092294;28;20024;-83
2022/05/09 05:36:52;;;;;;;5.22;2.58;;;15.80;81.60;;;;;;5090563;28;20576;-80
2022/05/09 05:39:18;;;;;;;5.10;1.90;;;15.80;81.60;;;;;;5094231;28;20030;-81
2022/05/09 05:41:44;;;;;;;4.53;2.10;;;15.90;81.50;;;;;;5093051;28;20024;-82
2022/05/09 05:44:11;;;;;;;4.88;2.28;;;15.90;81.40;;;;;;5093868;28;20020;-80
2022/05/09 05:46:43;;;;;;;4.53;2.10;;;15.90;81.30;;;;;;5092897;28;20028;-81
2022/05/09 05:49:09;;;;;;;5.10;2.33;;;15.90;81.20;;;;;;5108038;28;20027;-79
2022/05/09 05:51:36;;;;;;;5.03;2.20;;;15.90;80.90;;;;;;5090398;28;20048;-81
2022/05/09 05:54:03;;;;;;;5.47;2.50;;;15.90;81.00;;;;;;5089845;28;20398;-81
2022/05/09 05:56:28;;;;;;;5.35;2.38;;;15.90;81.10;;;;;;5088712;28;20122;-82
2022/05/09 05:58:54;;;;;;;5.65;2.42;;;15.90;81.20;;;;;;5089946;28;20111;-81
2022/05/09 06:01:19;;;;;;;5.05;2.15;;;15.90;81.30;;;;;;5089311;28;20027;-79
2022/05/09 06:03:45;;;;;;;4.47;2.10;;;15.90;81.30;;;;;;5082649;28;20032;-82
2022/05/09 06:06:13;;;;;;;4.95;2.28;;;15.80;81.30;;;;;;5082715;28;20454;-80
2022/05/09 06:08:40;;;;;;;6.30;2.42;;;15.90;81.30;;;;;;5089643;28;20036;-81
2022/05/09 06:11:07;;;;;;;5.45;2.53;;;15.90;81.30;;;;;;5089779;28;20035;-80
2022/05/09 06:13:33;;;;;;;4.72;2.42;;;15.90;81.30;;;;;;5089778;28;20031;-81
2022/05/09 06:15:58;;;;;;;6.28;2.70;;;15.90;81.30;;;;;;5090661;28;20032;-79
2022/05/09 06:18:24;;;;;;;4.25;2.30;;;15.90;81.10;;;;;;5090757;28;20128;-82
2022/05/09 06:20:49;;;;;;;4.60;2.10;;;15.90;80.90;;;;;;5088600;28;20108;-80
2022/05/09 06:23:17;;;;;;;6.30;2.50;;;15.90;80.70;;;;;;5088232;28;20033;-80
2022/05/09 06:25:46;;;;;;;4.65;2.20;;;15.90;80.80;;;;;;5089662;28;20047;-80
2022/05/09 06:28:12;;;;;;;5.68;2.45;;;15.90;80.80;;;;;;5088856;28;20031;-81
2022/05/09 06:30:38;;;;;;;3.95;2.15;;;15.90;81.00;;;;;;5089182;28;20028;-81
2022/05/09 06:33:04;;;;;;;5.10;2.33;;;15.90;81.00;;;;;;5088100;28;20073;-79
2022/05/09 06:35:30;;;;;;;4.50;2.10;;;15.90;81.10;;;;;;5090037;28;20028;-80
2022/05/09 06:38:02;;;;;;;4.80;2.60;;;15.90;81.10;;;;;;5088516;28;20038;-79
2022/05/09 06:40:30;;;;;;;4.40;2.15;;;15.90;81.10;;;;;;5088925;28;20035;-79
2022/05/09 06:42:56;;;;;;;5.30;2.20;;;16.00;81.20;;;;;;5088382;28;20047;-81
2022/05/09 06:45:23;;;;;;;5.18;2.50;;;16.00;81.10;;;;;;5088533;28;20073;-80
2022/05/09 06:47:54;;;;;;;5.13;2.60;;;16.10;80.80;;;;;;5087929;28;20135;-80
2022/05/09 06:50:28;;;;;;;4.80;2.50;;;16.10;80.70;;;;;;5092352;28;20725;-80
2022/05/09 06:52:53;;;;;;;3.92;1.90;;;16.20;80.40;;;;;;5091263;28;20261;-80
2022/05/09 06:55:19;;;;;;;5.65;2.50;;;16.20;80.30;;;;;;5090950;28;20491;-81
2022/05/09 06:57:45;;;;;;;5.50;2.30;;;16.20;80.20;;;;;;5090518;28;20024;-82
2022/05/09 07:00:14;;;;;;;4.88;2.17;;;16.20;80.00;;;;;;5091096;28;20480;-81
2022/05/09 07:02:40;;;;;;;6.05;2.45;;;16.30;80.10;;;;;;5090818;28;20026;-81
2022/05/09 07:05:09;;;;;;;5.85;2.65;;;16.20;79.90;;;;;;5090695;28;20458;-81
2022/05/09 07:07:34;;;;;;;4.40;2.28;;;16.20;79.80;;;;;;5091404;28;20073;-81
2022/05/09 07:10:00;;;;;;;5.10;2.55;;;16.20;79.60;;;;;;5091979;28;20020;-80
2022/05/09 07:12:25;;;;;;;4.20;1.92;;;16.20;79.90;;;;;;5090091;28;20071;-82
2022/05/09 07:14:51;;;;;;;4.25;2.20;;;16.20;79.90;;;;;;5090119;28;20054;-80
2022/05/09 07:17:16;;;;;;;4.63;2.30;;;16.20;80.00;;;;;;5089965;28;20036;-81
2022/05/09 07:19:43;;;;;;;4.45;2.28;;;16.20;79.90;;;;;;5090860;28;20016;-80
2022/05/09 07:22:08;;;;;;;5.15;2.45;;;16.20;80.10;;;;;;5091458;28;20475;-81
2022/05/09 07:24:34;;;;;;;5.95;2.20;;;16.20;80.10;;;;;;5089289;28;20044;-82
2022/05/09 07:26:59;;;;;;;4.68;2.40;;;16.20;80.10;;;;;;5088765;28;20036;-80
2022/05/09 07:29:25;;;;;;;4.93;2.13;;;16.20;80.10;;;;;;5089251;28;20074;-80
2022/05/09 07:31:50;;;;;;;4.65;2.30;;;16.30;80.10;;;;;;5089089;28;20035;-81
2022/05/09 07:34:16;;;;;;;4.03;2.25;;;16.30;80.00;;;;;;5089083;28;20119;-81
2022/05/09 07:36:42;;;;;;;4.07;2.20;;;16.30;80.00;;;;;;5090265;28;20024;-81
2022/05/09 07:39:08;;;;;;;4.43;2.15;;;16.30;79.90;;;;;;5088964;28;20031;-81
2022/05/09 07:41:33;;;;;;;4.55;2.10;;;16.30;79.90;;;;;;5089811;28;20032;-80
2022/05/09 07:43:59;;;;;;;4.85;2.45;;;16.30;79.80;;;;;;5090405;28;20039;-81
2022/05/09 07:46:25;;;;;;;4.50;2.35;;;16.40;79.80;;;;;;5088470;28;20058;-80
2022/05/09 07:48:52;;;;;;;5.03;2.15;;;16.40;79.70;;;;;;5088562;28;20020;-81
2022/05/09 07:51:18;;;;;;;4.07;2.17;;;16.40;79.60;;;;;;5088698;28;20024;-82
2022/05/09 07:53:44;;;;;;;4.72;2.25;;;16.40;79.60;;;;;;5088798;28;20031;-80
2022/05/09 07:56:09;;;;;;;5.60;2.47;;;16.40;79.50;;;;;;5087816;28;20104;-81
2022/05/09 07:58:35;;;;;;;4.80;2.30;;;16.50;79.40;;;;;;5088478;28;20028;-81
2022/05/09 08:01:02;;;;;;;5.20;2.28;;;16.50;79.20;;;;;;5088061;28;20028;-80
2022/05/09 08:03:30;;;;;;;4.72;2.50;;;16.60;79.10;;;;;;5089522;28;20028;-82
2022/05/09 08:05:58;;;;;;;3.97;2.10;;;16.60;78.90;;;;;;5087985;28;20035;-81
2022/05/09 08:08:24;;;;;;;5.03;2.30;;;16.60;78.70;;;;;;5087904;28;20059;-82
2022/05/09 08:10:50;;;;;;;3.78;1.80;;;16.70;78.70;;;;;;5089586;28;20097;-81
2022/05/09 08:13:18;;;;;;;5.43;2.40;;;16.70;78.70;;;;;;5088136;28;20487;-80
2022/05/09 08:15:46;;;;;;;4.03;2.00;;;16.60;78.40;;;;;;5088156;28;20510;-81
2022/05/09 08:18:13;;;;;;;4.63;2.30;;;16.60;78.60;;;;;;5088773;28;20035;-82
2022/05/09 08:20:40;;;;;;;4.55;2.20;;;16.60;78.60;;;;;;5090619;28;20028;-80
2022/05/09 08:23:09;;;;;;;4.15;2.08;;;16.60;78.80;;;;;;5090255;28;20043;-82
2022/05/09 08:25:36;;;;;;;3.63;2.15;;;16.60;78.90;;;;;;5092135;28;20043;-81
2022/05/09 08:28:04;;;;;;;4.22;2.05;;;16.60;79.00;;;;;;5091994;28;20028;-82
2022/05/09 08:30:32;;;;;;;4.25;2.10;;;16.60;79.00;;;;;;5094740;28;20522;-80
2022/05/09 08:32:59;;;;;;;4.20;2.10;;;16.70;79.00;;;;;;5092976;28;20471;-81
2022/05/09 08:35:25;;;;;;;5.53;2.28;;;16.70;78.90;;;;;;5093149;28;20020;-81
2022/05/09 08:37:50;;;;;;;3.60;2.00;;;16.70;78.90;;;;;;5094064;28;20520;-81
2022/05/09 08:40:20;;;;;;;3.67;1.92;;;16.70;78.90;;;;;;5093675;28;20067;-80
2022/05/09 08:42:56;;;;;;;4.70;2.00;;;16.70;78.80;;;;;;5093777;28;20035;-80
2022/05/09 08:45:26;;;;;;;3.88;1.90;;;16.70;78.80;;;;;;5093878;28;20020;-81
2022/05/09 08:48:11;;;;;;;4.40;2.40;;;16.70;78.80;;;;;;5092661;28;20570;-81
2022/05/09 08:50:59;;;;;;;5.32;2.38;;;16.70;78.70;;;;;;5093712;28;20031;-80
2022/05/09 08:53:26;;;;;;;4.82;2.15;;;16.70;78.70;;;;;;5092245;28;20474;-82
2022/05/09 08:55:54;;;;;;;5.20;2.45;;;16.80;78.70;;;;;;5091851;28;20032;-81
2022/05/09 08:58:41;;;;;;;5.55;2.60;;;16.80;78.70;;;;;;5092897;28;20038;-80
2022/05/09 09:01:16;;;;;;;4.22;2.17;;;16.80;78.60;;;;;;5092064;28;20501;-80
2022/05/09 09:03:52;;;;;;;4.78;2.10;;;16.80;78.60;;;;;;5091387;28;20065;-81
2022/05/09 09:06:59;;;;;;;4.22;2.08;;;16.80;78.50;;;;;;5092291;28;20088;-80
2022/05/09 09:09:41;;;;;;;3.75;2.10;;;16.90;78.50;;;;;;5088077;28;20020;-81
2022/05/09 09:12:19;;;;;;;4.32;2.20;;;16.90;78.20;;;;;;5092730;28;20047;-81
2022/05/09 09:15:07;;;;;;;4.95;2.35;;;17.00;78.10;;;;;;5093854;28;20024;-81
2022/05/09 09:17:57;;;;;;;5.40;2.35;;;17.00;78.00;;;;;;5072372;28;20037;-82
2022/05/09 09:20:29;;;;;;;3.28;1.85;;;17.00;77.80;;;;;;5073794;28;20025;-81
2022/05/09 09:23:14;;;;;;;;;;;17.00;77.80;;;;;;5074851;28;20119;-81
2022/05/09 09:25:51;;;;;;;3.45;1.88;;;17.00;78.00;;;;;;5072815;28;19971;-81
2022/05/09 09:28:33;;;;;;;3.88;2.10;;;17.00;78.20;;;;;;5074883;28;20033;-80
2022/05/09 09:31:04;;;;;;;4.63;2.20;;;17.00;78.20;;;;;;5074898;28;20115;-80
2022/05/09 09:33:31;;;;;;;4.53;2.30;;;17.00;78.20;;;;;;5074980;28;20107;-81
2022/05/09 09:36:07;;;;;;;4.03;2.10;;;17.00;78.20;;;;;;5074469;28;20028;-82
2022/05/09 09:38:45;;;;;;;4.30;2.08;;;17.00;78.20;;;;;;5073141;28;20033;-81
2022/05/09 09:41:18;;;;;;;4.60;2.15;;;17.00;78.10;;;;;;5073719;28;20052;-82
2022/05/09 09:43:46;;;;;;;4.65;2.08;;;17.00;78.10;;;;;;5073338;28;20025;-80
2022/05/09 09:46:12;;;;;;;3.50;1.80;;;17.00;78.00;;;;;;5083213;28;20303;-81
2022/05/09 09:48:39;;;;;;;4.28;2.03;;;17.00;78.00;;;;;;5093492;28;20032;-81
2022/05/09 09:51:17;;;;;;;3.13;1.88;;;17.00;78.00;;;;;;5091880;28;20035;-80
2022/05/09 09:53:52;;;;;;;4.35;2.10;;;17.00;78.00;;;;;;5093395;28;20143;-79
2022/05/09 09:56:20;;;;;;;3.55;1.77;;;17.00;78.00;;;;;;5091447;28;20024;-81
2022/05/09 09:58:47;;;;;;;4.10;1.95;;;17.10;78.00;;;;;;5091357;28;20027;-81
2022/05/09 10:01:25;;;;;;;3.88;1.80;;;17.10;77.90;;;;;;5095702;28;20403;-80
2022/05/09 10:04:10;;;;;;;3.47;1.80;;;17.10;77.90;;;;;;5095010;28;20502;-80
2022/05/09 10:07:12;;;;;;;4.13;1.80;;;17.10;77.90;;;;;;5095145;28;20024;-79
2022/05/09 10:10:00;;;;;;;3.90;2.20;;;17.10;77.90;;;;;;5088998;28;20028;-80
2022/05/09 10:12:29;;;;;;;3.92;1.80;;;17.10;77.90;;;;;;5093807;28;20118;-80
2022/05/09 10:14:55;;;;;;;3.40;1.63;;;17.10;77.80;;;;;;5095079;28;20031;-79
2022/05/09 10:17:41;;;;;;;4.40;2.25;;;17.10;77.80;;;;;;5094680;28;20036;-80
2022/05/09 10:20:32;;;;;;;4.45;1.92;;;17.20;77.70;;;;;;5094374;28;20059;-80
2022/05/09 10:26:18;;;;;;;3.47;1.98;;;17.20;77.40;;;;;;5096513;28;20060;-80
2022/05/09 10:28:47;;;;;;;3.58;1.95;;;17.20;77.40;;;;;;5096804;28;20024;-81
2022/05/09 10:31:21;;;;;;;4.07;1.90;;;17.20;77.20;;;;;;5096349;28;20027;-80
2022/05/09 10:34:12;;;;;;;3.65;2.00;;;17.20;77.50;;;;;;5095799;28;20487;-81
2022/05/09 10:36:41;;;;;;;3.83;1.92;;;17.20;77.70;;;;;;5095602;28;20514;-80
2022/05/09 10:39:22;;;;;;;4.07;1.90;;;17.20;77.90;;;;;;5095607;28;20024;-81
2022/05/09 10:41:52;;;;;;;3.67;1.90;;;17.10;77.90;;;;;;5095821;28;20024;-80
2022/05/09 10:44:29;;;;;;;4.18;1.90;;;17.10;78.00;;;;;;5095557;28;20084;-80
2022/05/09 10:47:01;;;;;;;3.55;2.00;;;17.10;78.10;;;;;;5094457;28;20491;-80
2022/05/09 10:49:33;;;;;;;;;;;17.10;78.00;;;;;;5095651;28;20039;-80
2022/05/09 10:52:17;;;;;;;4.07;1.98;;;17.10;78.10;;;;;;5095174;28;19904;-80
2022/05/09 10:54:49;;;;;;;4.63;2.20;;;17.10;78.10;;;;;;5095891;28;20031;-80
2022/05/09 10:57:44;;;;;;;3.88;1.98;;;17.10;78.20;;;;;;5094644;28;20124;-80
2022/05/09 11:00:19;;;;;;;4.45;1.80;;;17.10;78.20;;;;;;5061296;28;20039;-80
2022/05/09 11:03:00;;;;;;;3.78;2.08;;;17.10;78.30;;;;;;5095742;28;20020;-79
2022/05/09 11:05:28;;;;;;;;;;;17.10;78.30;;;;;;5096290;28;20024;-80
2022/05/09 11:08:07;;;;;;;3.47;1.90;;;17.10;78.30;;;;;;5094287;28;19912;-80
2022/05/09 11:10:58;;;;;;;3.30;1.80;;;17.10;78.90;;;;;;5093754;28;20031;-80
2022/05/09 11:13:25;;;;;;;3.97;1.88;;;17.10;78.40;;;;;;5095655;28;20103;-80
2022/05/09 11:16:00;;;;;;;3.45;1.83;;;17.10;78.40;;;;;;5094698;28;20024;-80
2022/05/09 11:19:15;;;;;;;4.15;1.80;;;17.10;78.40;;;;;;5093466;28;20028;-80
2022/05/09 11:22:06;;;;;;;4.22;1.90;;;17.10;78.50;;;;;;5012308;28;20026;-80
2022/05/09 11:24:44;;;;;;;4.05;1.80;;;17.10;78.40;;;;;;5084485;28;20035;-80
2022/05/09 11:27:35;;;;;;;3.78;1.80;;;17.10;78.30;;;;;;5094835;28;20035;-80
2022/05/09 11:30:15;;;;;;;2.75;1.60;;;17.20;78.10;;;;;;5093370;28;20094;-80
2022/05/09 11:32:43;;;;;;;3.53;1.80;;;17.20;78.10;;;;;;5093380;28;20029;-80
2022/05/09 11:35:29;;;;;;;3.53;1.80;;;17.20;77.90;;;;;;5093964;28;20032;-80
2022/05/09 11:38:16;;;;;;;3.75;1.85;;;17.20;77.90;;;;;;5092970;28;20050;-80
2022/05/09 11:40:57;;;;;;;3.80;1.75;;;17.20;77.80;;;;;;5092931;28;20036;-81
2022/05/09 11:44:01;;;;;;;3.10;1.70;;;17.20;78.00;;;;;;5092520;28;20024;-80
2022/05/09 11:47:07;;;;;;;3.08;1.70;;;17.10;78.20;;;;;;5093883;28;20025;-80
2022/05/09 11:49:58;;;;;;;3.15;1.70;;;17.10;78.40;;;;;;5094539;28;20035;-80
2022/05/09 11:52:23;;;;;;;;;;;17.10;78.60;;;;;;5093294;28;20031;-80
2022/05/09 11:54:50;;;;;;;3.97;1.80;;;17.10;78.70;;;;;;5092129;28;20371;-79
2022/05/09 11:57:33;;;;;;;4.10;1.83;;;17.00;78.70;;;;;;5090355;28;20032;-80
2022/05/09 12:00:02;;;;;;;3.17;1.58;;;17.00;78.80;;;;;;5093499;28;20032;-81
2022/05/09 12:02:47;;;;;;;3.33;1.80;;;17.00;78.90;;;;;;5098929;28;20024;-80
2022/05/09 12:05:25;;;;;;;3.17;1.80;;;17.00;78.90;;;;;;5098682;28;20024;-80
2022/05/09 12:08:13;;;;;;;3.47;1.95;;;17.00;78.90;;;;;;5098258;28;20107;-80
2022/05/09 12:10:44;;;;;;;3.25;1.80;;;17.00;79.00;;;;;;5098968;28;20046;-80
2022/05/09 12:13:24;;;;;;;2.72;1.48;;;17.00;79.10;;;;;;5098705;28;20727;-80
2022/05/09 12:15:58;;;;;;;3.60;1.80;;;17.00;79.00;;;;;;5095802;28;20044;-80
2022/05/09 12:18:49;;;;;;;3.22;1.90;;;17.00;79.10;;;;;;5098853;28;20521;-80
2022/05/09 12:21:21;;;;;;;4.18;1.60;;;17.00;79.10;;;;;;5097305;28;20077;-80
2022/05/09 12:23:47;;;;;;;;;;;17.00;79.10;;;;;;5097285;28;20441;-80
2022/05/09 12:26:31;;;;;;;3.75;1.83;;;17.00;79.20;;;;;;5097035;28;19939;-80
2022/05/09 12:29:16;;;;;;;3.15;1.70;;;17.00;79.30;;;;;;5097176;28;20065;-80
2022/05/09 12:31:44;;;;;;;2.63;1.60;;;17.00;79.20;;;;;;5099081;28;20048;-81
2022/05/09 12:34:12;;;;;;;5.03;1.80;;;17.00;79.00;;;;;;5098893;28;20032;-81
2022/05/09 12:36:38;;;;;;;3.53;1.65;;;17.10;78.90;;;;;;5096736;28;20020;-81
2022/05/09 12:39:12;;;;;;;3.22;1.60;;;17.10;78.70;;;;;;5098339;28;20122;-81
2022/05/09 12:41:48;;;;;;;3.20;1.75;;;17.10;78.70;;;;;;5097050;28;20059;-81
2022/05/09 12:44:38;;;;;;;4.18;1.90;;;17.10;78.60;;;;;;5096868;28;20024;-81
2022/05/09 12:47:14;;;;;;;2.83;1.50;;;17.10;78.50;;;;;;5096075;28;20031;-80
2022/05/09 12:49:53;;;;;;;2.55;1.40;;;17.00;78.60;;;;;;5096230;28;20127;-81
2022/05/09 12:52:23;;;;;;;3.05;1.58;;;17.00;78.90;;;;;;5096392;28;20028;-81
2022/05/09 12:57:38;;;;;;;3.95;1.60;;;16.90;79.30;;;;;;5097723;28;20069;-81
2022/05/09 13:00:28;;;;;;;3.67;1.70;;;16.90;79.60;;;;;;5095996;28;20074;-81
2022/05/09 13:02:54;;;;;;;;;;;16.90;79.70;;;;;;5086899;28;20063;-80
2022/05/09 13:05:37;;;;;;;2.10;1.33;;;16.90;79.80;;;;;;5095987;28;20287;-81
2022/05/09 13:08:05;;;;;;;2.78;1.50;;;16.90;79.80;;;;;;5095590;28;20486;-80
2022/05/09 13:10:31;;;;;;;2.92;1.70;;;16.80;79.80;;;;;;5095331;28;20027;-81
2022/05/09 13:13:05;;;;;;;3.22;1.80;;;16.80;79.90;;;;;;5095892;28;20028;-81
2022/05/09 13:15:33;;;;;;;3.75;1.70;;;16.80;79.90;;;;;;5095634;28;20069;-80
2022/05/09 13:18:03;;;;;;;3.30;1.85;;;16.80;79.90;;;;;;5095381;28;20028;-81
2022/05/09 13:20:34;;;;;;;2.75;1.63;;;16.80;79.90;;;;;;5097155;28;20028;-81